Jackson, AL

6:40 PM CDT on May 24, 2015 (GMT -0500)
Mobile Regional | | Change Station
CLOSE
Current Station
Airport
Location: Mobile,
Elevation: 220 ft
Nearby Weather Stations

Elev 220 ft 30.69 °N, 88.25 °W | Updated 28 minutes ago

Partly Cloudy
Partly Cloudy
78 °F
Feels Like 78 °F
N
18
Wind Variable Wind from SE
Gusts 26 mph

Today
High -- | Low -- °F
--% Chance of Precip.
Yesterday
High -- | Low -- °F
Precip. -- in
5:49 AM 7:45 PM
Waxing Crescent, 43% visible
Pressure 30.07 in
Visibility 3.0 miles
Clouds Scattered Clouds 1700 ft
Mostly Cloudy 2500 ft
Mostly Cloudy 6500 ft
Dew Point 75 °F
Humidity 90%
Rainfall 0.35 in
Snow Depth Not available.
UV 1 out of 12
Pollen 4.50 out of 12
Air Quality Not available.
Flu Activity Sporadic
SPECI KMOB 242312Z 13016G23KT 3SM -RA BR SCT017 BKN025CB BKN065 26/24 A3007 RMK AO2 CB ALQDS MOV N P0008 T02560239 $

More Conditions Fewer Conditions

Pressure 30.07 in
Visibility 3.0 miles
Clouds Scattered Clouds 1700 ft
Mostly Cloudy 2500 ft
Mostly Cloudy 6500 ft
Dew Point 75 °F
Humidity 90%
Rainfall 0.35 in
Snow Depth Not available.
UV 1 out of 12
Pollen 4.50 out of 12
Air Quality Not available.
Flu Activity Sporadic
SPECI KMOB 242312Z 13016G23KT 3SM -RA BR SCT017 BKN025CB BKN065 26/24 A3007 RMK AO2 CB ALQDS MOV N P0008 T02560239 $

More Conditions Fewer Conditions

10-Day Weather Forecast

Almanac

Astronomy

May. 24, 2015 Rise Set
Actual Time
Civil Twilight
Nautical Twilight
Astronomical Twilight
Moon
Length of Visible Light
Length of Day
Tomorrow will be .
, % of the Moon is Illuminated

Today's Extremes

State Highs State Lows

Community

WunderPhotos

Upload Photos

1,823,895 photos uploaded!

WunderBlogs® & News

Nearby

Air Quality

  Air Quality AQ Index Pollutant
Not available.

Snow Depth

Station Depth Elevation

Earthquake Activity

City Distance Mag. Time & Date
Minimum magnitude displayed is 2.5.

Coastal Water Temperatures

Place Temperature

Stations

Nearby Weather Stations

Station Location Temp. Windchill Dew Point Humidity Wind Precip. Elev Updated Type